Terminal Aerodrome Forecast
Issued by NWS Newport/Morehead City, NC

Home | Current Version | Previous Version | Text Only | Print | Product List | Glossary On
Versions: 1 2 3 4 5 6 7 8 9 10 11 12 13 14 15 16 17 18 19 20
486
FTUS42 KMHX 142332
TAFEWN
TAF
KEWN 142332Z 1500/1524 VRB04KT P6SM SCT015 BKN250
     FM150800 00000KT 3SM BR BKN004
     FM151300 00000KT 6SM BR BKN007
     FM151400 00000KT P6SM BKN015
     FM151500 00000KT P6SM BKN025
     FM151600 17003KT P6SM BKN040=

USA.gov is the U.S. government's official web portal to all federal, state and local government web resources and services.